sensor_id;sensor_type;location;lat;lon;timestamp;P1;durP1;ratioP1;P2;durP2;ratioP2
78871;SDS011;68247;43.514;1.502;2023-05-09T00:01:53;3.87;;;1.10;;
78871;SDS011;68247;43.514;1.502;2023-05-09T00:04:18;2.63;;;1.27;;
78871;SDS011;68247;43.514;1.502;2023-05-09T00:06:44;3.00;;;1.30;;
78871;SDS011;68247;43.514;1.502;2023-05-09T00:09:09;3.93;;;1.40;;
78871;SDS011;68247;43.514;1.502;2023-05-09T00:11:36;4.28;;;1.42;;
78871;SDS011;68247;43.514;1.502;2023-05-09T00:14:01;4.40;;;1.30;;
78871;SDS011;68247;43.514;1.502;2023-05-09T00:16:28;4.65;;;1.50;;
78871;SDS011;68247;43.514;1.502;2023-05-09T00:18:53;5.00;;;1.50;;
78871;SDS011;68247;43.514;1.502;2023-05-09T00:21:20;5.45;;;1.40;;
78871;SDS011;68247;43.514;1.502;2023-05-09T00:23:45;4.03;;;1.60;;
78871;SDS011;68247;43.514;1.502;2023-05-09T00:26:11;3.10;;;1.10;;
78871;SDS011;68247;43.514;1.502;2023-05-09T00:28:37;3.17;;;1.33;;
78871;SDS011;68247;43.514;1.502;2023-05-09T00:31:02;5.73;;;1.87;;
78871;SDS011;68247;43.514;1.502;2023-05-09T00:33:28;3.13;;;1.42;;
78871;SDS011;68247;43.514;1.502;2023-05-09T00:35:54;4.63;;;1.70;;
78871;SDS011;68247;43.514;1.502;2023-05-09T00:38:19;4.93;;;2.03;;
78871;SDS011;68247;43.514;1.502;2023-05-09T00:40:46;4.32;;;1.60;;
78871;SDS011;68247;43.514;1.502;2023-05-09T00:43:11;3.20;;;1.20;;
78871;SDS011;68247;43.514;1.502;2023-05-09T00:45:37;3.28;;;1.50;;
78871;SDS011;68247;43.514;1.502;2023-05-09T00:48:02;5.50;;;1.70;;
78871;SDS011;68247;43.514;1.502;2023-05-09T00:50:28;4.47;;;1.60;;
78871;SDS011;68247;43.514;1.502;2023-05-09T00:52:53;4.13;;;1.60;;
78871;SDS011;68247;43.514;1.502;2023-05-09T00:55:18;3.40;;;1.40;;
78871;SDS011;68247;43.514;1.502;2023-05-09T00:57:44;4.33;;;1.40;;
78871;SDS011;68247;43.514;1.502;2023-05-09T01:00:10;3.50;;;1.50;;
78871;SDS011;68247;43.514;1.502;2023-05-09T01:02:43;3.65;;;1.30;;
78871;SDS011;68247;43.514;1.502;2023-05-09T01:05:09;3.97;;;1.63;;
78871;SDS011;68247;43.514;1.502;2023-05-09T01:26:01;5.13;;;2.07;;
78871;SDS011;68247;43.514;1.502;2023-05-09T01:28:45;5.45;;;1.77;;
78871;SDS011;68247;43.514;1.502;2023-05-09T01:31:37;3.90;;;1.67;;
78871;SDS011;68247;43.514;1.502;2023-05-09T01:34:04;4.55;;;1.77;;
78871;SDS011;68247;43.514;1.502;2023-05-09T01:36:30;5.00;;;1.80;;
78871;SDS011;68247;43.514;1.502;2023-05-09T01:38:57;5.75;;;1.80;;
78871;SDS011;68247;43.514;1.502;2023-05-09T01:41:23;5.70;;;1.75;;
78871;SDS011;68247;43.514;1.502;2023-05-09T01:43:50;4.45;;;1.52;;
78871;SDS011;68247;43.514;1.502;2023-05-09T01:46:16;5.37;;;1.67;;
78871;SDS011;68247;43.514;1.502;2023-05-09T01:48:42;5.05;;;2.00;;
78871;SDS011;68247;43.514;1.502;2023-05-09T01:51:08;4.10;;;1.90;;
78871;SDS011;68247;43.514;1.502;2023-05-09T01:53:35;4.55;;;1.92;;
78871;SDS011;68247;43.514;1.502;2023-05-09T01:56:04;5.80;;;2.40;;
78871;SDS011;68247;43.514;1.502;2023-05-09T01:58:31;5.07;;;2.28;;
78871;SDS011;68247;43.514;1.502;2023-05-09T02:00:58;5.75;;;2.22;;
78871;SDS011;68247;43.514;1.502;2023-05-09T02:03:24;7.45;;;2.40;;
78871;SDS011;68247;43.514;1.502;2023-05-09T02:05:50;6.33;;;2.50;;
78871;SDS011;68247;43.514;1.502;2023-05-09T02:08:17;5.97;;;2.22;;
78871;SDS011;68247;43.514;1.502;2023-05-09T02:10:45;5.70;;;2.50;;
78871;SDS011;68247;43.514;1.502;2023-05-09T02:13:11;5.83;;;2.00;;
78871;SDS011;68247;43.514;1.502;2023-05-09T02:15:37;5.22;;;2.17;;
78871;SDS011;68247;43.514;1.502;2023-05-09T02:18:03;5.03;;;2.17;;
78871;SDS011;68247;43.514;1.502;2023-05-09T02:20:30;4.53;;;1.90;;
78871;SDS011;68247;43.514;1.502;2023-05-09T02:22:55;7.63;;;1.92;;
78871;SDS011;68247;43.514;1.502;2023-05-09T02:25:21;4.50;;;2.30;;
78871;SDS011;68247;43.514;1.502;2023-05-09T02:27:47;5.72;;;1.73;;
78871;SDS011;68247;43.514;1.502;2023-05-09T02:30:20;5.67;;;1.87;;
78871;SDS011;68247;43.514;1.502;2023-05-09T02:32:49;3.92;;;1.73;;
78871;SDS011;68247;43.514;1.502;2023-05-09T02:35:16;5.65;;;1.80;;
78871;SDS011;68247;43.514;1.502;2023-05-09T02:37:43;5.18;;;1.98;;
78871;SDS011;68247;43.514;1.502;2023-05-09T02:40:09;4.37;;;2.00;;
78871;SDS011;68247;43.514;1.502;2023-05-09T02:42:35;3.10;;;1.75;;
78871;SDS011;68247;43.514;1.502;2023-05-09T02:45:01;4.57;;;1.90;;
78871;SDS011;68247;43.514;1.502;2023-05-09T02:47:26;3.70;;;1.65;;
78871;SDS011;68247;43.514;1.502;2023-05-09T02:49:52;4.40;;;2.07;;
78871;SDS011;68247;43.514;1.502;2023-05-09T02:52:17;5.60;;;1.97;;
78871;SDS011;68247;43.514;1.502;2023-05-09T02:54:42;4.53;;;1.93;;
78871;SDS011;68247;43.514;1.502;2023-05-09T02:57:08;4.32;;;1.83;;
78871;SDS011;68247;43.514;1.502;2023-05-09T02:59:34;3.57;;;1.90;;
78871;SDS011;68247;43.514;1.502;2023-05-09T03:01:59;4.50;;;1.60;;
78871;SDS011;68247;43.514;1.502;2023-05-09T03:04:25;6.38;;;2.10;;
78871;SDS011;68247;43.514;1.502;2023-05-09T03:06:51;4.45;;;1.77;;
78871;SDS011;68247;43.514;1.502;2023-05-09T03:09:16;5.93;;;1.97;;
78871;SDS011;68247;43.514;1.502;2023-05-09T03:11:42;4.27;;;1.70;;
78871;SDS011;68247;43.514;1.502;2023-05-09T03:14:07;5.00;;;1.83;;
78871;SDS011;68247;43.514;1.502;2023-05-09T03:16:34;5.43;;;1.90;;
78871;SDS011;68247;43.514;1.502;2023-05-09T03:19:00;6.22;;;2.20;;
78871;SDS011;68247;43.514;1.502;2023-05-09T03:21:25;4.37;;;1.90;;
78871;SDS011;68247;43.514;1.502;2023-05-09T03:23:51;6.40;;;2.37;;
78871;SDS011;68247;43.514;1.502;2023-05-09T03:26:16;6.63;;;2.30;;
78871;SDS011;68247;43.514;1.502;2023-05-09T03:28:42;4.90;;;2.10;;
78871;SDS011;68247;43.514;1.502;2023-05-09T03:31:07;6.20;;;2.30;;
78871;SDS011;68247;43.514;1.502;2023-05-09T03:33:33;6.05;;;2.10;;
78871;SDS011;68247;43.514;1.502;2023-05-09T03:35:59;4.40;;;2.37;;
78871;SDS011;68247;43.514;1.502;2023-05-09T03:38:24;6.07;;;2.00;;
78871;SDS011;68247;43.514;1.502;2023-05-09T03:40:49;5.67;;;2.17;;
78871;SDS011;68247;43.514;1.502;2023-05-09T03:43:15;4.68;;;2.22;;
78871;SDS011;68247;43.514;1.502;2023-05-09T03:45:41;7.37;;;2.23;;
78871;SDS011;68247;43.514;1.502;2023-05-09T03:48:07;5.07;;;2.00;;
78871;SDS011;68247;43.514;1.502;2023-05-09T03:50:34;6.28;;;1.90;;
78871;SDS011;68247;43.514;1.502;2023-05-09T03:52:59;8.40;;;2.50;;
78871;SDS011;68247;43.514;1.502;2023-05-09T03:55:25;4.53;;;1.80;;
78871;SDS011;68247;43.514;1.502;2023-05-09T03:57:51;4.47;;;2.10;;
78871;SDS011;68247;43.514;1.502;2023-05-09T04:00:17;6.22;;;2.45;;
78871;SDS011;68247;43.514;1.502;2023-05-09T04:02:42;5.33;;;2.27;;
78871;SDS011;68247;43.514;1.502;2023-05-09T04:05:08;6.90;;;2.10;;
78871;SDS011;68247;43.514;1.502;2023-05-09T04:07:34;4.93;;;2.30;;
78871;SDS011;68247;43.514;1.502;2023-05-09T04:09:59;8.00;;;2.23;;
78871;SDS011;68247;43.514;1.502;2023-05-09T04:12:24;6.23;;;2.50;;
78871;SDS011;68247;43.514;1.502;2023-05-09T04:14:50;4.90;;;2.40;;
78871;SDS011;68247;43.514;1.502;2023-05-09T04:17:16;6.85;;;2.40;;
78871;SDS011;68247;43.514;1.502;2023-05-09T04:19:42;6.53;;;2.75;;
78871;SDS011;68247;43.514;1.502;2023-05-09T04:22:07;6.33;;;2.80;;
78871;SDS011;68247;43.514;1.502;2023-05-09T04:24:32;6.03;;;2.53;;
78871;SDS011;68247;43.514;1.502;2023-05-09T04:26:58;5.93;;;2.58;;
78871;SDS011;68247;43.514;1.502;2023-05-09T04:29:23;5.97;;;2.53;;
78871;SDS011;68247;43.514;1.502;2023-05-09T04:31:50;5.80;;;2.63;;
78871;SDS011;68247;43.514;1.502;2023-05-09T04:34:15;7.43;;;2.40;;
78871;SDS011;68247;43.514;1.502;2023-05-09T04:36:40;6.13;;;2.60;;
78871;SDS011;68247;43.514;1.502;2023-05-09T04:39:06;5.13;;;2.23;;
78871;SDS011;68247;43.514;1.502;2023-05-09T04:41:32;5.60;;;2.58;;
78871;SDS011;68247;43.514;1.502;2023-05-09T04:43:57;4.47;;;2.20;;
78871;SDS011;68247;43.514;1.502;2023-05-09T04:46:23;6.27;;;2.30;;
78871;SDS011;68247;43.514;1.502;2023-05-09T04:48:48;5.82;;;2.17;;
78871;SDS011;68247;43.514;1.502;2023-05-09T04:51:14;6.93;;;2.80;;
78871;SDS011;68247;43.514;1.502;2023-05-09T04:53:39;7.20;;;2.80;;
78871;SDS011;68247;43.514;1.502;2023-05-09T04:56:05;7.73;;;2.50;;
78871;SDS011;68247;43.514;1.502;2023-05-09T04:58:30;6.83;;;2.43;;
78871;SDS011;68247;43.514;1.502;2023-05-09T05:00:58;6.63;;;2.90;;
78871;SDS011;68247;43.514;1.502;2023-05-09T05:03:23;7.27;;;2.57;;
78871;SDS011;68247;43.514;1.502;2023-05-09T05:05:49;5.13;;;2.60;;
78871;SDS011;68247;43.514;1.502;2023-05-09T05:08:14;5.80;;;2.90;;
78871;SDS011;68247;43.514;1.502;2023-05-09T05:10:40;5.87;;;2.57;;
78871;SDS011;68247;43.514;1.502;2023-05-09T05:13:05;7.70;;;2.67;;
78871;SDS011;68247;43.514;1.502;2023-05-09T05:15:31;9.00;;;2.70;;
78871;SDS011;68247;43.514;1.502;2023-05-09T05:17:56;6.43;;;2.10;;
78871;SDS011;68247;43.514;1.502;2023-05-09T05:20:22;6.80;;;2.67;;
78871;SDS011;68247;43.514;1.502;2023-05-09T05:22:47;5.97;;;2.65;;
78871;SDS011;68247;43.514;1.502;2023-05-09T05:25:13;5.67;;;2.80;;
78871;SDS011;68247;43.514;1.502;2023-05-09T05:27:38;6.47;;;2.80;;
78871;SDS011;68247;43.514;1.502;2023-05-09T05:30:04;10.45;;;3.03;;
78871;SDS011;68247;43.514;1.502;2023-05-09T05:32:30;6.37;;;2.70;;
78871;SDS011;68247;43.514;1.502;2023-05-09T05:34:55;6.43;;;3.07;;
78871;SDS011;68247;43.514;1.502;2023-05-09T05:37:21;5.97;;;2.77;;
78871;SDS011;68247;43.514;1.502;2023-05-09T05:39:47;8.30;;;2.60;;
78871;SDS011;68247;43.514;1.502;2023-05-09T05:42:12;5.28;;;2.40;;
78871;SDS011;68247;43.514;1.502;2023-05-09T05:44:38;6.40;;;2.67;;
78871;SDS011;68247;43.514;1.502;2023-05-09T05:47:03;6.13;;;2.60;;
78871;SDS011;68247;43.514;1.502;2023-05-09T05:49:28;8.30;;;3.00;;
78871;SDS011;68247;43.514;1.502;2023-05-09T05:51:54;6.20;;;2.75;;
78871;SDS011;68247;43.514;1.502;2023-05-09T05:54:19;6.73;;;2.87;;
78871;SDS011;68247;43.514;1.502;2023-05-09T05:56:44;4.40;;;2.60;;
78871;SDS011;68247;43.514;1.502;2023-05-09T05:59:10;6.97;;;2.40;;
78871;SDS011;68247;43.514;1.502;2023-05-09T06:01:35;7.07;;;2.80;;
78871;SDS011;68247;43.514;1.502;2023-05-09T06:04:01;8.30;;;3.23;;
78871;SDS011;68247;43.514;1.502;2023-05-09T06:06:26;7.67;;;2.80;;
78871;SDS011;68247;43.514;1.502;2023-05-09T06:08:52;6.23;;;2.77;;
78871;SDS011;68247;43.514;1.502;2023-05-09T06:11:17;5.03;;;2.80;;
78871;SDS011;68247;43.514;1.502;2023-05-09T06:13:43;8.00;;;2.73;;
78871;SDS011;68247;43.514;1.502;2023-05-09T06:16:08;5.82;;;2.78;;
78871;SDS011;68247;43.514;1.502;2023-05-09T06:18:34;6.33;;;2.60;;
78871;SDS011;68247;43.514;1.502;2023-05-09T06:21:02;7.90;;;2.88;;
78871;SDS011;68247;43.514;1.502;2023-05-09T06:23:28;6.60;;;2.72;;
78871;SDS011;68247;43.514;1.502;2023-05-09T06:25:53;7.23;;;2.63;;
78871;SDS011;68247;43.514;1.502;2023-05-09T06:28:18;8.30;;;2.67;;
78871;SDS011;68247;43.514;1.502;2023-05-09T06:30:44;7.57;;;2.67;;
78871;SDS011;68247;43.514;1.502;2023-05-09T06:33:09;6.00;;;2.70;;
78871;SDS011;68247;43.514;1.502;2023-05-09T06:35:35;7.17;;;3.10;;
78871;SDS011;68247;43.514;1.502;2023-05-09T06:38:00;7.93;;;3.10;;
78871;SDS011;68247;43.514;1.502;2023-05-09T06:40:26;6.50;;;2.55;;
78871;SDS011;68247;43.514;1.502;2023-05-09T06:42:51;10.50;;;2.80;;
78871;SDS011;68247;43.514;1.502;2023-05-09T06:45:16;7.33;;;2.83;;
78871;SDS011;68247;43.514;1.502;2023-05-09T06:47:42;6.47;;;2.70;;
78871;SDS011;68247;43.514;1.502;2023-05-09T06:50:07;5.72;;;2.38;;
78871;SDS011;68247;43.514;1.502;2023-05-09T06:52:33;5.37;;;2.43;;
78871;SDS011;68247;43.514;1.502;2023-05-09T06:54:58;7.27;;;2.87;;
78871;SDS011;68247;43.514;1.502;2023-05-09T06:57:24;9.53;;;3.10;;
78871;SDS011;68247;43.514;1.502;2023-05-09T06:59:49;11.10;;;3.17;;
78871;SDS011;68247;43.514;1.502;2023-05-09T07:02:15;5.80;;;2.77;;
78871;SDS011;68247;43.514;1.502;2023-05-09T07:04:40;9.37;;;3.00;;
78871;SDS011;68247;43.514;1.502;2023-05-09T07:07:07;6.75;;;2.75;;
78871;SDS011;68247;43.514;1.502;2023-05-09T07:09:32;7.53;;;3.40;;
78871;SDS011;68247;43.514;1.502;2023-05-09T07:11:58;6.47;;;2.70;;
78871;SDS011;68247;43.514;1.502;2023-05-09T07:14:24;7.90;;;2.85;;
78871;SDS011;68247;43.514;1.502;2023-05-09T07:16:49;7.37;;;2.73;;
78871;SDS011;68247;43.514;1.502;2023-05-09T07:19:15;5.93;;;2.63;;
78871;SDS011;68247;43.514;1.502;2023-05-09T07:21:40;6.90;;;2.80;;
78871;SDS011;68247;43.514;1.502;2023-05-09T07:24:06;8.73;;;2.83;;
78871;SDS011;68247;43.514;1.502;2023-05-09T07:26:31;6.90;;;2.60;;
78871;SDS011;68247;43.514;1.502;2023-05-09T07:28:56;8.53;;;3.10;;
78871;SDS011;68247;43.514;1.502;2023-05-09T07:31:22;12.88;;;2.90;;
78871;SDS011;68247;43.514;1.502;2023-05-09T07:33:47;8.10;;;2.57;;
78871;SDS011;68247;43.514;1.502;2023-05-09T07:36:13;8.37;;;3.00;;
78871;SDS011;68247;43.514;1.502;2023-05-09T07:38:40;8.80;;;2.97;;
78871;SDS011;68247;43.514;1.502;2023-05-09T07:41:05;9.40;;;2.93;;
78871;SDS011;68247;43.514;1.502;2023-05-09T07:43:31;7.75;;;3.20;;
78871;SDS011;68247;43.514;1.502;2023-05-09T07:45:56;12.27;;;3.23;;
78871;SDS011;68247;43.514;1.502;2023-05-09T07:48:22;8.77;;;2.97;;
78871;SDS011;68247;43.514;1.502;2023-05-09T07:50:47;8.98;;;2.90;;
78871;SDS011;68247;43.514;1.502;2023-05-09T07:53:13;7.73;;;2.70;;
78871;SDS011;68247;43.514;1.502;2023-05-09T07:55:38;7.43;;;2.63;;
78871;SDS011;68247;43.514;1.502;2023-05-09T07:58:04;9.47;;;3.00;;
78871;SDS011;68247;43.514;1.502;2023-05-09T08:00:29;6.35;;;2.63;;
78871;SDS011;68247;43.514;1.502;2023-05-09T08:02:55;7.47;;;3.33;;
78871;SDS011;68247;43.514;1.502;2023-05-09T08:05:20;8.03;;;2.90;;
78871;SDS011;68247;43.514;1.502;2023-05-09T08:07:46;9.93;;;2.83;;
78871;SDS011;68247;43.514;1.502;2023-05-09T08:10:11;6.35;;;3.00;;
78871;SDS011;68247;43.514;1.502;2023-05-09T08:12:37;8.10;;;3.10;;
78871;SDS011;68247;43.514;1.502;2023-05-09T08:15:02;9.67;;;3.37;;
78871;SDS011;68247;43.514;1.502;2023-05-09T08:17:28;9.15;;;3.65;;
78871;SDS011;68247;43.514;1.502;2023-05-09T08:19:53;10.23;;;4.00;;
78871;SDS011;68247;43.514;1.502;2023-05-09T08:22:19;7.87;;;3.40;;
78871;SDS011;68247;43.514;1.502;2023-05-09T08:24:45;11.20;;;3.45;;
78871;SDS011;68247;43.514;1.502;2023-05-09T08:27:11;11.25;;;3.50;;
78871;SDS011;68247;43.514;1.502;2023-05-09T08:29:40;10.15;;;3.40;;
78871;SDS011;68247;43.514;1.502;2023-05-09T08:32:05;9.27;;;3.43;;
78871;SDS011;68247;43.514;1.502;2023-05-09T08:34:31;8.75;;;3.40;;
78871;SDS011;68247;43.514;1.502;2023-05-09T08:36:59;5.40;;;2.60;;
78871;SDS011;68247;43.514;1.502;2023-05-09T08:39:24;9.68;;;2.90;;
78871;SDS011;68247;43.514;1.502;2023-05-09T08:41:50;7.20;;;3.03;;
78871;SDS011;68247;43.514;1.502;2023-05-09T08:44:18;11.43;;;3.05;;
78871;SDS011;68247;43.514;1.502;2023-05-09T08:46:45;7.57;;;2.80;;
78871;SDS011;68247;43.514;1.502;2023-05-09T08:49:13;7.20;;;2.70;;
78871;SDS011;68247;43.514;1.502;2023-05-09T08:51:38;8.00;;;2.95;;
78871;SDS011;68247;43.514;1.502;2023-05-09T08:54:04;9.33;;;3.30;;
78871;SDS011;68247;43.514;1.502;2023-05-09T08:56:30;8.70;;;2.90;;
78871;SDS011;68247;43.514;1.502;2023-05-09T08:58:57;6.30;;;2.30;;
78871;SDS011;68247;43.514;1.502;2023-05-09T09:01:22;9.07;;;2.80;;
78871;SDS011;68247;43.514;1.502;2023-05-09T09:03:50;8.65;;;2.47;;
78871;SDS011;68247;43.514;1.502;2023-05-09T09:06:16;7.83;;;2.63;;
78871;SDS011;68247;43.514;1.502;2023-05-09T09:08:42;7.65;;;2.97;;
78871;SDS011;68247;43.514;1.502;2023-05-09T09:11:14;8.00;;;3.25;;
78871;SDS011;68247;43.514;1.502;2023-05-09T09:13:40;6.97;;;2.50;;
78871;SDS011;68247;43.514;1.502;2023-05-09T09:16:11;8.05;;;2.97;;
78871;SDS011;68247;43.514;1.502;2023-05-09T09:18:45;5.93;;;2.53;;
78871;SDS011;68247;43.514;1.502;2023-05-09T09:21:11;9.27;;;2.60;;
78871;SDS011;68247;43.514;1.502;2023-05-09T09:23:39;6.57;;;2.60;;
78871;SDS011;68247;43.514;1.502;2023-05-09T09:26:06;6.47;;;2.20;;
78871;SDS011;68247;43.514;1.502;2023-05-09T09:28:33;5.55;;;2.10;;
78871;SDS011;68247;43.514;1.502;2023-05-09T09:30:58;7.28;;;2.53;;
78871;SDS011;68247;43.514;1.502;2023-05-09T09:33:25;6.77;;;2.43;;
78871;SDS011;68247;43.514;1.502;2023-05-09T09:35:52;6.65;;;2.10;;
78871;SDS011;68247;43.514;1.502;2023-05-09T09:38:19;7.82;;;2.33;;
78871;SDS011;68247;43.514;1.502;2023-05-09T09:41:03;6.68;;;1.90;;
78871;SDS011;68247;43.514;1.502;2023-05-09T09:43:28;8.30;;;2.10;;
78871;SDS011;68247;43.514;1.502;2023-05-09T09:45:55;5.73;;;2.40;;
78871;SDS011;68247;43.514;1.502;2023-05-09T09:48:24;7.72;;;1.80;;
78871;SDS011;68247;43.514;1.502;2023-05-09T09:50:52;7.75;;;1.92;;
78871;SDS011;68247;43.514;1.502;2023-05-09T09:53:19;6.28;;;2.10;;
78871;SDS011;68247;43.514;1.502;2023-05-09T09:55:50;5.37;;;1.93;;
78871;SDS011;68247;43.514;1.502;2023-05-09T09:58:18;5.53;;;1.83;;
78871;SDS011;68247;43.514;1.502;2023-05-09T10:01:10;5.07;;;2.25;;
78871;SDS011;68247;43.514;1.502;2023-05-09T10:03:38;6.72;;;1.92;;
78871;SDS011;68247;43.514;1.502;2023-05-09T10:06:08;6.63;;;2.55;;
78871;SDS011;68247;43.514;1.502;2023-05-09T10:08:34;4.70;;;1.90;;
78871;SDS011;68247;43.514;1.502;2023-05-09T10:11:00;4.68;;;1.67;;
78871;SDS011;68247;43.514;1.502;2023-05-09T10:13:25;6.87;;;2.03;;
78871;SDS011;68247;43.514;1.502;2023-05-09T10:15:52;7.40;;;2.17;;
78871;SDS011;68247;43.514;1.502;2023-05-09T10:18:31;7.28;;;2.40;;
78871;SDS011;68247;43.514;1.502;2023-05-09T10:20:58;8.80;;;2.70;;
78871;SDS011;68247;43.514;1.502;2023-05-09T10:23:28;7.18;;;2.80;;
78871;SDS011;68247;43.514;1.502;2023-05-09T10:28:39;9.23;;;2.80;;
78871;SDS011;68247;43.514;1.502;2023-05-09T10:31:10;7.40;;;2.80;;
78871;SDS011;68247;43.514;1.502;2023-05-09T10:33:39;7.03;;;2.77;;
78871;SDS011;68247;43.514;1.502;2023-05-09T10:36:07;5.45;;;2.20;;
78871;SDS011;68247;43.514;1.502;2023-05-09T10:38:33;7.55;;;2.83;;
78871;SDS011;68247;43.514;1.502;2023-05-09T10:40:59;6.07;;;2.63;;
78871;SDS011;68247;43.514;1.502;2023-05-09T10:43:24;9.23;;;2.60;;
78871;SDS011;68247;43.514;1.502;2023-05-09T10:45:51;5.28;;;2.88;;
78871;SDS011;68247;43.514;1.502;2023-05-09T10:48:16;10.60;;;3.03;;
78871;SDS011;68247;43.514;1.502;2023-05-09T10:50:42;7.57;;;3.13;;
78871;SDS011;68247;43.514;1.502;2023-05-09T10:53:09;6.97;;;3.03;;
78871;SDS011;68247;43.514;1.502;2023-05-09T10:58:21;7.22;;;3.30;;
78871;SDS011;68247;43.514;1.502;2023-05-09T11:00:50;9.10;;;2.75;;
78871;SDS011;68247;43.514;1.502;2023-05-09T11:03:17;10.07;;;2.87;;
78871;SDS011;68247;43.514;1.502;2023-05-09T11:05:43;6.22;;;2.67;;
78871;SDS011;68247;43.514;1.502;2023-05-09T11:10:47;6.47;;;2.47;;
78871;SDS011;68247;43.514;1.502;2023-05-09T11:13:16;8.43;;;2.75;;
78871;SDS011;68247;43.514;1.502;2023-05-09T11:18:17;8.38;;;2.85;;
78871;SDS011;68247;43.514;1.502;2023-05-09T11:20:43;6.33;;;2.90;;
78871;SDS011;68247;43.514;1.502;2023-05-09T11:23:10;8.02;;;2.83;;
78871;SDS011;68247;43.514;1.502;2023-05-09T11:25:37;6.63;;;3.47;;
78871;SDS011;68247;43.514;1.502;2023-05-09T11:28:03;7.32;;;3.28;;
78871;SDS011;68247;43.514;1.502;2023-05-09T11:30:39;5.13;;;1.35;;
78871;SDS011;68247;43.514;1.502;2023-05-09T11:33:06;5.32;;;1.70;;
78871;SDS011;68247;43.514;1.502;2023-05-09T11:38:44;3.67;;;1.60;;
78871;SDS011;68247;43.514;1.502;2023-05-09T11:41:11;3.15;;;1.13;;
78871;SDS011;68247;43.514;1.502;2023-05-09T11:43:37;2.92;;;1.13;;
78871;SDS011;68247;43.514;1.502;2023-05-09T11:46:03;0.90;;;0.40;;
78871;SDS011;68247;43.514;1.502;2023-05-09T11:48:29;1.00;;;0.50;;
78871;SDS011;68247;43.514;1.502;2023-05-09T11:50:55;0.80;;;0.35;;
78871;SDS011;68247;43.514;1.502;2023-05-09T11:53:20;1.27;;;0.47;;
78871;SDS011;68247;43.514;1.502;2023-05-09T11:55:46;1.08;;;0.57;;
78871;SDS011;68247;43.514;1.502;2023-05-09T11:58:12;0.90;;;0.40;;
78871;SDS011;68247;43.514;1.502;2023-05-09T12:00:42;1.20;;;0.60;;
78871;SDS011;68247;43.514;1.502;2023-05-09T12:03:10;0.80;;;0.30;;
78871;SDS011;68247;43.514;1.502;2023-05-09T12:05:36;0.93;;;0.40;;
78871;SDS011;68247;43.514;1.502;2023-05-09T12:08:06;1.38;;;0.50;;
78871;SDS011;68247;43.514;1.502;2023-05-09T12:10:35;0.93;;;0.45;;
78871;SDS011;68247;43.514;1.502;2023-05-09T12:13:02;0.97;;;0.40;;
78871;SDS011;68247;43.514;1.502;2023-05-09T12:15:27;0.80;;;0.30;;
78871;SDS011;68247;43.514;1.502;2023-05-09T12:18:03;1.10;;;0.50;;
78871;SDS011;68247;43.514;1.502;2023-05-09T12:20:46;0.80;;;0.30;;
78871;SDS011;68247;43.514;1.502;2023-05-09T12:23:14;1.10;;;0.60;;
78871;SDS011;68247;43.514;1.502;2023-05-09T12:26:00;0.80;;;0.30;;
78871;SDS011;68247;43.514;1.502;2023-05-09T12:28:25;0.83;;;0.30;;
78871;SDS011;68247;43.514;1.502;2023-05-09T12:30:51;1.05;;;0.50;;
78871;SDS011;68247;43.514;1.502;2023-05-09T12:33:17;0.88;;;0.38;;
78871;SDS011;68247;43.514;1.502;2023-05-09T12:35:46;0.90;;;0.40;;
78871;SDS011;68247;43.514;1.502;2023-05-09T12:38:13;0.90;;;0.45;;
78871;SDS011;68247;43.514;1.502;2023-05-09T12:40:40;0.90;;;0.40;;
78871;SDS011;68247;43.514;1.502;2023-05-09T12:43:06;1.00;;;0.53;;
78871;SDS011;68247;43.514;1.502;2023-05-09T12:45:31;1.08;;;0.63;;
78871;SDS011;68247;43.514;1.502;2023-05-09T12:47:57;1.13;;;0.70;;
78871;SDS011;68247;43.514;1.502;2023-05-09T12:50:31;0.90;;;0.40;;
78871;SDS011;68247;43.514;1.502;2023-05-09T12:53:01;0.80;;;0.32;;
78871;SDS011;68247;43.514;1.502;2023-05-09T12:55:27;0.90;;;0.32;;
78871;SDS011;68247;43.514;1.502;2023-05-09T12:58:00;0.80;;;0.30;;
78871;SDS011;68247;43.514;1.502;2023-05-09T13:00:26;0.97;;;0.53;;
78871;SDS011;68247;43.514;1.502;2023-05-09T13:02:52;0.93;;;0.32;;
78871;SDS011;68247;43.514;1.502;2023-05-09T13:05:19;1.17;;;0.52;;
78871;SDS011;68247;43.514;1.502;2023-05-09T13:07:47;1.37;;;0.70;;
78871;SDS011;68247;43.514;1.502;2023-05-09T13:12:47;1.77;;;0.75;;
78871;SDS011;68247;43.514;1.502;2023-05-09T13:15:14;2.30;;;0.70;;
78871;SDS011;68247;43.514;1.502;2023-05-09T13:17:40;2.40;;;0.80;;
78871;SDS011;68247;43.514;1.502;2023-05-09T13:20:07;0.90;;;0.40;;
78871;SDS011;68247;43.514;1.502;2023-05-09T13:22:33;1.02;;;0.50;;
78871;SDS011;68247;43.514;1.502;2023-05-09T13:24:59;0.80;;;0.30;;
78871;SDS011;68247;43.514;1.502;2023-05-09T13:27:25;0.93;;;0.47;;
78871;SDS011;68247;43.514;1.502;2023-05-09T13:29:52;1.80;;;0.95;;
78871;SDS011;68247;43.514;1.502;2023-05-09T13:32:18;0.90;;;0.40;;
78871;SDS011;68247;43.514;1.502;2023-05-09T13:34:43;0.80;;;0.30;;
78871;SDS011;68247;43.514;1.502;2023-05-09T13:37:09;0.90;;;0.40;;
78871;SDS011;68247;43.514;1.502;2023-05-09T13:39:34;1.30;;;0.90;;
78871;SDS011;68247;43.514;1.502;2023-05-09T13:42:00;1.00;;;0.40;;
78871;SDS011;68247;43.514;1.502;2023-05-09T13:44:26;1.08;;;0.63;;
78871;SDS011;68247;43.514;1.502;2023-05-09T13:46:52;1.48;;;0.82;;
78871;SDS011;68247;43.514;1.502;2023-05-09T13:49:18;0.70;;;0.27;;
78871;SDS011;68247;43.514;1.502;2023-05-09T13:51:44;0.90;;;0.40;;
78871;SDS011;68247;43.514;1.502;2023-05-09T13:54:09;1.40;;;0.50;;
78871;SDS011;68247;43.514;1.502;2023-05-09T13:56:37;0.90;;;0.40;;
78871;SDS011;68247;43.514;1.502;2023-05-09T13:59:03;0.90;;;0.35;;
78871;SDS011;68247;43.514;1.502;2023-05-09T14:01:29;0.60;;;0.20;;
78871;SDS011;68247;43.514;1.502;2023-05-09T14:03:54;1.13;;;0.50;;
78871;SDS011;68247;43.514;1.502;2023-05-09T14:06:20;1.15;;;0.57;;
78871;SDS011;68247;43.514;1.502;2023-05-09T14:08:46;0.90;;;0.40;;
78871;SDS011;68247;43.514;1.502;2023-05-09T14:11:11;1.00;;;0.57;;
78871;SDS011;68247;43.514;1.502;2023-05-09T14:13:37;1.37;;;0.77;;
78871;SDS011;68247;43.514;1.502;2023-05-09T14:16:02;0.80;;;0.32;;
78871;SDS011;68247;43.514;1.502;2023-05-09T14:18:29;0.97;;;0.40;;
78871;SDS011;68247;43.514;1.502;2023-05-09T14:20:54;4.00;;;1.58;;
78871;SDS011;68247;43.514;1.502;2023-05-09T14:23:20;0.97;;;0.60;;
78871;SDS011;68247;43.514;1.502;2023-05-09T14:25:46;1.10;;;0.50;;
78871;SDS011;68247;43.514;1.502;2023-05-09T14:28:12;1.17;;;0.57;;
78871;SDS011;68247;43.514;1.502;2023-05-09T14:30:38;0.93;;;0.40;;
78871;SDS011;68247;43.514;1.502;2023-05-09T14:33:04;0.90;;;0.40;;
78871;SDS011;68247;43.514;1.502;2023-05-09T14:35:31;0.80;;;0.30;;
78871;SDS011;68247;43.514;1.502;2023-05-09T14:37:58;1.05;;;0.45;;
78871;SDS011;68247;43.514;1.502;2023-05-09T14:40:24;1.63;;;0.85;;
78871;SDS011;68247;43.514;1.502;2023-05-09T14:42:50;1.20;;;0.60;;
78871;SDS011;68247;43.514;1.502;2023-05-09T14:45:16;0.90;;;0.30;;
78871;SDS011;68247;43.514;1.502;2023-05-09T14:47:41;14.70;;;1.33;;
78871;SDS011;68247;43.514;1.502;2023-05-09T14:50:07;0.70;;;0.30;;
78871;SDS011;68247;43.514;1.502;2023-05-09T14:52:35;1.10;;;0.57;;
78871;SDS011;68247;43.514;1.502;2023-05-09T14:55:01;1.13;;;0.52;;
78871;SDS011;68247;43.514;1.502;2023-05-09T14:57:26;1.10;;;0.40;;
78871;SDS011;68247;43.514;1.502;2023-05-09T14:59:51;0.90;;;0.43;;
78871;SDS011;68247;43.514;1.502;2023-05-09T15:02:17;1.17;;;0.50;;
78871;SDS011;68247;43.514;1.502;2023-05-09T15:04:42;1.00;;;0.50;;
78871;SDS011;68247;43.514;1.502;2023-05-09T15:07:09;0.93;;;0.52;;
78871;SDS011;68247;43.514;1.502;2023-05-09T15:09:35;1.00;;;0.45;;
78871;SDS011;68247;43.514;1.502;2023-05-09T15:12:02;0.63;;;0.20;;
78871;SDS011;68247;43.514;1.502;2023-05-09T15:14:27;1.35;;;0.88;;
78871;SDS011;68247;43.514;1.502;2023-05-09T15:16:53;0.70;;;0.30;;
78871;SDS011;68247;43.514;1.502;2023-05-09T15:19:19;5.47;;;0.73;;